sensor_id;sensor_type;location;lat;lon;timestamp;P1;durP1;ratioP1;P2;durP2;ratioP2
26474;SDS011;14161;52.270;10.334;2022-07-29T00:02:02;1.92;;;0.70;;
26474;SDS011;14161;52.270;10.334;2022-07-29T00:04:27;3.22;;;0.85;;
26474;SDS011;14161;52.270;10.334;2022-07-29T00:06:53;1.88;;;0.80;;
26474;SDS011;14161;52.270;10.334;2022-07-29T00:09:18;1.40;;;0.75;;
26474;SDS011;14161;52.270;10.334;2022-07-29T00:11:43;1.58;;;0.80;;
26474;SDS011;14161;52.270;10.334;2022-07-29T00:14:09;2.97;;;0.90;;
26474;SDS011;14161;52.270;10.334;2022-07-29T00:16:34;2.25;;;0.50;;
26474;SDS011;14161;52.270;10.334;2022-07-29T00:19:00;1.60;;;0.82;;
26474;SDS011;14161;52.270;10.334;2022-07-29T00:21:26;1.58;;;0.70;;
26474;SDS011;14161;52.270;10.334;2022-07-29T00:23:51;1.17;;;0.75;;
26474;SDS011;14161;52.270;10.334;2022-07-29T00:26:16;2.53;;;0.82;;
26474;SDS011;14161;52.270;10.334;2022-07-29T00:28:42;5.80;;;0.80;;
26474;SDS011;14161;52.270;10.334;2022-07-29T00:31:07;1.92;;;0.90;;
26474;SDS011;14161;52.270;10.334;2022-07-29T00:33:33;0.95;;;0.50;;
26474;SDS011;14161;52.270;10.334;2022-07-29T00:35:58;1.77;;;0.80;;
26474;SDS011;14161;52.270;10.334;2022-07-29T00:38:24;0.90;;;0.60;;
26474;SDS011;14161;52.270;10.334;2022-07-29T00:40:49;1.80;;;0.80;;
26474;SDS011;14161;52.270;10.334;2022-07-29T00:43:15;1.60;;;0.60;;
26474;SDS011;14161;52.270;10.334;2022-07-29T00:45:42;2.45;;;0.82;;
26474;SDS011;14161;52.270;10.334;2022-07-29T00:48:08;2.50;;;0.98;;
26474;SDS011;14161;52.270;10.334;2022-07-29T00:50:34;2.70;;;0.73;;
26474;SDS011;14161;52.270;10.334;2022-07-29T00:53:00;1.33;;;0.60;;
26474;SDS011;14161;52.270;10.334;2022-07-29T00:55:26;1.85;;;1.00;;
26474;SDS011;14161;52.270;10.334;2022-07-29T00:57:52;1.50;;;0.88;;
26474;SDS011;14161;52.270;10.334;2022-07-29T01:00:22;3.20;;;0.80;;
26474;SDS011;14161;52.270;10.334;2022-07-29T01:02:49;3.28;;;0.90;;
26474;SDS011;14161;52.270;10.334;2022-07-29T01:05:19;0.95;;;0.70;;
26474;SDS011;14161;52.270;10.334;2022-07-29T01:07:46;1.85;;;0.68;;
26474;SDS011;14161;52.270;10.334;2022-07-29T01:10:13;2.10;;;0.80;;
26474;SDS011;14161;52.270;10.334;2022-07-29T01:12:40;1.35;;;0.70;;
26474;SDS011;14161;52.270;10.334;2022-07-29T01:15:07;2.05;;;0.88;;
26474;SDS011;14161;52.270;10.334;2022-07-29T01:20:51;3.15;;;0.68;;
26474;SDS011;14161;52.270;10.334;2022-07-29T01:30:45;1.10;;;0.60;;
26474;SDS011;14161;52.270;10.334;2022-07-29T01:33:13;5.10;;;0.80;;
26474;SDS011;14161;52.270;10.334;2022-07-29T01:36:06;2.08;;;0.80;;
26474;SDS011;14161;52.270;10.334;2022-07-29T01:38:37;0.75;;;0.60;;
26474;SDS011;14161;52.270;10.334;2022-07-29T01:46:45;3.92;;;0.93;;
26474;SDS011;14161;52.270;10.334;2022-07-29T01:49:20;1.88;;;0.88;;
26474;SDS011;14161;52.270;10.334;2022-07-29T01:51:57;2.00;;;0.73;;
26474;SDS011;14161;52.270;10.334;2022-07-29T01:54:26;2.17;;;0.93;;
26474;SDS011;14161;52.270;10.334;2022-07-29T01:56:56;3.08;;;0.88;;
26474;SDS011;14161;52.270;10.334;2022-07-29T01:59:22;1.52;;;0.75;;
26474;SDS011;14161;52.270;10.334;2022-07-29T02:01:49;1.73;;;0.80;;
26474;SDS011;14161;52.270;10.334;2022-07-29T02:04:16;3.13;;;0.90;;
26474;SDS011;14161;52.270;10.334;2022-07-29T02:06:44;2.08;;;0.90;;
26474;SDS011;14161;52.270;10.334;2022-07-29T02:09:10;1.42;;;0.98;;
26474;SDS011;14161;52.270;10.334;2022-07-29T02:11:37;1.33;;;0.60;;
26474;SDS011;14161;52.270;10.334;2022-07-29T02:14:03;3.60;;;0.98;;
26474;SDS011;14161;52.270;10.334;2022-07-29T02:16:30;4.43;;;0.85;;
26474;SDS011;14161;52.270;10.334;2022-07-29T02:18:56;0.88;;;0.75;;
26474;SDS011;14161;52.270;10.334;2022-07-29T02:21:25;2.67;;;0.88;;
26474;SDS011;14161;52.270;10.334;2022-07-29T02:23:52;1.98;;;0.65;;
26474;SDS011;14161;52.270;10.334;2022-07-29T02:26:19;3.05;;;0.88;;
26474;SDS011;14161;52.270;10.334;2022-07-29T02:28:45;1.00;;;0.70;;
26474;SDS011;14161;52.270;10.334;2022-07-29T02:31:12;1.70;;;0.80;;
26474;SDS011;14161;52.270;10.334;2022-07-29T02:33:38;1.42;;;0.85;;
26474;SDS011;14161;52.270;10.334;2022-07-29T02:36:05;1.95;;;0.80;;
26474;SDS011;14161;52.270;10.334;2022-07-29T02:38:31;2.15;;;0.93;;
26474;SDS011;14161;52.270;10.334;2022-07-29T02:44:13;0.98;;;0.73;;
26474;SDS011;14161;52.270;10.334;2022-07-29T02:47:02;1.17;;;0.80;;
26474;SDS011;14161;52.270;10.334;2022-07-29T02:49:36;2.72;;;0.95;;
26474;SDS011;14161;52.270;10.334;2022-07-29T02:54:46;2.95;;;0.90;;
26474;SDS011;14161;52.270;10.334;2022-07-29T02:57:21;2.80;;;0.88;;
26474;SDS011;14161;52.270;10.334;2022-07-29T02:59:54;1.73;;;0.80;;
26474;SDS011;14161;52.270;10.334;2022-07-29T03:02:23;2.78;;;0.68;;
26474;SDS011;14161;52.270;10.334;2022-07-29T03:04:48;0.80;;;0.80;;
26474;SDS011;14161;52.270;10.334;2022-07-29T03:07:15;3.33;;;0.80;;
26474;SDS011;14161;52.270;10.334;2022-07-29T03:09:43;1.38;;;0.85;;
26474;SDS011;14161;52.270;10.334;2022-07-29T03:12:09;2.05;;;1.05;;
26474;SDS011;14161;52.270;10.334;2022-07-29T03:14:35;1.83;;;0.80;;
26474;SDS011;14161;52.270;10.334;2022-07-29T03:17:01;0.57;;;0.55;;
26474;SDS011;14161;52.270;10.334;2022-07-29T03:19:27;4.47;;;0.90;;
26474;SDS011;14161;52.270;10.334;2022-07-29T03:21:55;1.75;;;0.70;;
26474;SDS011;14161;52.270;10.334;2022-07-29T03:24:26;3.13;;;0.80;;
26474;SDS011;14161;52.270;10.334;2022-07-29T03:26:53;1.35;;;0.60;;
26474;SDS011;14161;52.270;10.334;2022-07-29T03:29:19;2.70;;;0.77;;
26474;SDS011;14161;52.270;10.334;2022-07-29T03:31:45;1.67;;;0.55;;
26474;SDS011;14161;52.270;10.334;2022-07-29T03:34:11;2.70;;;0.88;;
26474;SDS011;14161;52.270;10.334;2022-07-29T03:36:36;3.63;;;0.77;;
26474;SDS011;14161;52.270;10.334;2022-07-29T03:39:02;2.97;;;1.00;;
26474;SDS011;14161;52.270;10.334;2022-07-29T03:41:28;1.88;;;0.80;;
26474;SDS011;14161;52.270;10.334;2022-07-29T03:43:55;1.95;;;0.82;;
26474;SDS011;14161;52.270;10.334;2022-07-29T03:46:25;2.47;;;0.98;;
26474;SDS011;14161;52.270;10.334;2022-07-29T03:48:55;1.52;;;1.00;;
26474;SDS011;14161;52.270;10.334;2022-07-29T03:51:33;1.77;;;0.70;;
26474;SDS011;14161;52.270;10.334;2022-07-29T03:54:02;4.20;;;1.05;;
26474;SDS011;14161;52.270;10.334;2022-07-29T03:56:41;1.05;;;0.70;;
26474;SDS011;14161;52.270;10.334;2022-07-29T03:59:08;1.25;;;0.70;;
26474;SDS011;14161;52.270;10.334;2022-07-29T04:01:42;1.60;;;0.90;;
26474;SDS011;14161;52.270;10.334;2022-07-29T04:04:11;1.58;;;0.82;;
26474;SDS011;14161;52.270;10.334;2022-07-29T04:06:41;2.88;;;1.20;;
26474;SDS011;14161;52.270;10.334;2022-07-29T04:09:08;2.58;;;0.85;;
26474;SDS011;14161;52.270;10.334;2022-07-29T04:11:43;2.50;;;0.93;;
26474;SDS011;14161;52.270;10.334;2022-07-29T04:14:11;2.78;;;0.80;;
26474;SDS011;14161;52.270;10.334;2022-07-29T04:16:37;2.70;;;0.90;;
26474;SDS011;14161;52.270;10.334;2022-07-29T04:19:05;1.63;;;0.90;;
26474;SDS011;14161;52.270;10.334;2022-07-29T04:21:43;1.75;;;0.80;;
26474;SDS011;14161;52.270;10.334;2022-07-29T04:24:10;3.30;;;1.10;;
26474;SDS011;14161;52.270;10.334;2022-07-29T04:26:35;1.33;;;0.90;;
26474;SDS011;14161;52.270;10.334;2022-07-29T04:29:01;5.25;;;0.90;;
26474;SDS011;14161;52.270;10.334;2022-07-29T04:31:26;2.45;;;1.15;;
26474;SDS011;14161;52.270;10.334;2022-07-29T04:33:52;6.22;;;1.70;;
26474;SDS011;14161;52.270;10.334;2022-07-29T04:36:23;2.53;;;1.30;;
26474;SDS011;14161;52.270;10.334;2022-07-29T04:38:48;2.42;;;1.00;;
26474;SDS011;14161;52.270;10.334;2022-07-29T04:41:14;2.60;;;1.00;;
26474;SDS011;14161;52.270;10.334;2022-07-29T04:43:39;3.30;;;0.93;;
26474;SDS011;14161;52.270;10.334;2022-07-29T04:46:05;3.85;;;1.00;;
26474;SDS011;14161;52.270;10.334;2022-07-29T04:48:34;1.48;;;0.80;;
26474;SDS011;14161;52.270;10.334;2022-07-29T04:51:00;1.77;;;0.82;;
26474;SDS011;14161;52.270;10.334;2022-07-29T04:53:25;1.63;;;1.02;;
26474;SDS011;14161;52.270;10.334;2022-07-29T04:55:51;2.03;;;1.05;;
26474;SDS011;14161;52.270;10.334;2022-07-29T04:58:16;2.72;;;1.10;;
26474;SDS011;14161;52.270;10.334;2022-07-29T05:00:42;4.15;;;1.08;;
26474;SDS011;14161;52.270;10.334;2022-07-29T05:03:11;1.83;;;0.90;;
26474;SDS011;14161;52.270;10.334;2022-07-29T05:05:36;3.45;;;1.15;;
26474;SDS011;14161;52.270;10.334;2022-07-29T05:08:08;4.55;;;1.00;;
26474;SDS011;14161;52.270;10.334;2022-07-29T05:10:36;3.55;;;1.00;;
26474;SDS011;14161;52.270;10.334;2022-07-29T05:13:08;4.22;;;1.08;;
26474;SDS011;14161;52.270;10.334;2022-07-29T05:15:34;6.57;;;0.90;;
26474;SDS011;14161;52.270;10.334;2022-07-29T05:18:03;3.38;;;1.05;;
26474;SDS011;14161;52.270;10.334;2022-07-29T05:20:29;3.33;;;1.25;;
26474;SDS011;14161;52.270;10.334;2022-07-29T05:22:58;3.78;;;0.93;;
26474;SDS011;14161;52.270;10.334;2022-07-29T05:25:25;4.80;;;1.30;;
26474;SDS011;14161;52.270;10.334;2022-07-29T05:27:53;2.50;;;0.80;;
26474;SDS011;14161;52.270;10.334;2022-07-29T05:30:19;1.10;;;0.80;;
26474;SDS011;14161;52.270;10.334;2022-07-29T05:32:44;1.13;;;0.80;;
26474;SDS011;14161;52.270;10.334;2022-07-29T05:35:15;3.22;;;1.17;;
26474;SDS011;14161;52.270;10.334;2022-07-29T05:37:44;4.45;;;1.33;;
26474;SDS011;14161;52.270;10.334;2022-07-29T05:40:13;5.72;;;1.40;;
26474;SDS011;14161;52.270;10.334;2022-07-29T05:42:41;4.57;;;1.38;;
26474;SDS011;14161;52.270;10.334;2022-07-29T05:45:07;2.28;;;1.30;;
26474;SDS011;14161;52.270;10.334;2022-07-29T05:47:41;3.47;;;1.27;;
26474;SDS011;14161;52.270;10.334;2022-07-29T05:50:08;2.20;;;0.93;;
26474;SDS011;14161;52.270;10.334;2022-07-29T05:52:33;4.25;;;1.40;;
26474;SDS011;14161;52.270;10.334;2022-07-29T05:54:59;3.85;;;1.48;;
26474;SDS011;14161;52.270;10.334;2022-07-29T05:57:27;7.32;;;1.40;;
26474;SDS011;14161;52.270;10.334;2022-07-29T05:59:53;5.65;;;1.33;;
26474;SDS011;14161;52.270;10.334;2022-07-29T06:02:26;2.70;;;0.93;;
26474;SDS011;14161;52.270;10.334;2022-07-29T06:04:52;6.05;;;1.40;;
26474;SDS011;14161;52.270;10.334;2022-07-29T06:07:17;3.78;;;1.17;;
26474;SDS011;14161;52.270;10.334;2022-07-29T06:09:45;3.63;;;1.02;;
26474;SDS011;14161;52.270;10.334;2022-07-29T06:12:14;2.80;;;1.40;;
26474;SDS011;14161;52.270;10.334;2022-07-29T06:14:42;2.58;;;1.33;;
26474;SDS011;14161;52.270;10.334;2022-07-29T06:17:11;1.70;;;1.10;;
26474;SDS011;14161;52.270;10.334;2022-07-29T06:19:39;2.40;;;1.15;;
26474;SDS011;14161;52.270;10.334;2022-07-29T06:22:05;3.90;;;1.40;;
26474;SDS011;14161;52.270;10.334;2022-07-29T06:24:30;4.60;;;1.30;;
26474;SDS011;14161;52.270;10.334;2022-07-29T06:26:56;2.30;;;1.20;;
26474;SDS011;14161;52.270;10.334;2022-07-29T06:29:21;3.40;;;1.48;;
26474;SDS011;14161;52.270;10.334;2022-07-29T06:31:48;3.08;;;1.20;;
26474;SDS011;14161;52.270;10.334;2022-07-29T06:34:16;3.88;;;1.20;;
26474;SDS011;14161;52.270;10.334;2022-07-29T06:36:41;3.95;;;1.08;;
26474;SDS011;14161;52.270;10.334;2022-07-29T06:39:13;4.10;;;1.38;;
26474;SDS011;14161;52.270;10.334;2022-07-29T06:41:39;1.67;;;1.38;;
26474;SDS011;14161;52.270;10.334;2022-07-29T06:44:18;2.72;;;1.30;;
26474;SDS011;14161;52.270;10.334;2022-07-29T06:47:05;4.13;;;1.50;;
26474;SDS011;14161;52.270;10.334;2022-07-29T06:49:33;2.50;;;1.30;;
26474;SDS011;14161;52.270;10.334;2022-07-29T06:58:11;3.80;;;1.23;;
26474;SDS011;14161;52.270;10.334;2022-07-29T07:00:37;2.13;;;1.20;;
26474;SDS011;14161;52.270;10.334;2022-07-29T07:03:03;3.00;;;1.50;;
26474;SDS011;14161;52.270;10.334;2022-07-29T07:05:31;7.05;;;1.70;;
26474;SDS011;14161;52.270;10.334;2022-07-29T07:08:00;2.83;;;1.27;;
26474;SDS011;14161;52.270;10.334;2022-07-29T07:10:25;1.65;;;1.08;;
26474;SDS011;14161;52.270;10.334;2022-07-29T07:12:51;3.67;;;1.38;;
26474;SDS011;14161;52.270;10.334;2022-07-29T07:15:19;3.35;;;1.33;;
26474;SDS011;14161;52.270;10.334;2022-07-29T07:17:52;4.28;;;1.55;;
26474;SDS011;14161;52.270;10.334;2022-07-29T07:22:46;6.53;;;1.75;;
26474;SDS011;14161;52.270;10.334;2022-07-29T07:25:12;3.33;;;1.20;;
26474;SDS011;14161;52.270;10.334;2022-07-29T07:27:38;6.30;;;1.48;;
26474;SDS011;14161;52.270;10.334;2022-07-29T07:30:04;2.22;;;1.00;;
26474;SDS011;14161;52.270;10.334;2022-07-29T07:32:32;2.95;;;1.38;;
26474;SDS011;14161;52.270;10.334;2022-07-29T07:34:58;3.83;;;1.38;;
26474;SDS011;14161;52.270;10.334;2022-07-29T07:37:24;3.15;;;1.20;;
26474;SDS011;14161;52.270;10.334;2022-07-29T07:39:55;3.33;;;1.42;;
26474;SDS011;14161;52.270;10.334;2022-07-29T07:42:21;1.60;;;1.15;;
26474;SDS011;14161;52.270;10.334;2022-07-29T07:44:52;4.65;;;1.60;;
26474;SDS011;14161;52.270;10.334;2022-07-29T07:47:18;2.13;;;1.38;;
26474;SDS011;14161;52.270;10.334;2022-07-29T07:49:48;2.80;;;1.17;;
26474;SDS011;14161;52.270;10.334;2022-07-29T07:52:24;5.25;;;1.27;;
26474;SDS011;14161;52.270;10.334;2022-07-29T07:54:50;3.03;;;1.30;;
26474;SDS011;14161;52.270;10.334;2022-07-29T07:57:16;4.00;;;1.30;;
26474;SDS011;14161;52.270;10.334;2022-07-29T07:59:42;4.72;;;1.60;;
26474;SDS011;14161;52.270;10.334;2022-07-29T08:02:07;2.67;;;1.30;;
26474;SDS011;14161;52.270;10.334;2022-07-29T08:04:33;6.25;;;1.60;;
26474;SDS011;14161;52.270;10.334;2022-07-29T08:06:59;3.58;;;1.60;;
26474;SDS011;14161;52.270;10.334;2022-07-29T08:09:26;3.05;;;1.48;;
26474;SDS011;14161;52.270;10.334;2022-07-29T08:11:53;1.88;;;1.20;;
26474;SDS011;14161;52.270;10.334;2022-07-29T08:14:19;5.10;;;1.90;;
26474;SDS011;14161;52.270;10.334;2022-07-29T08:16:47;2.38;;;1.35;;
26474;SDS011;14161;52.270;10.334;2022-07-29T08:19:16;3.28;;;1.45;;
26474;SDS011;14161;52.270;10.334;2022-07-29T08:21:41;4.40;;;1.42;;
26474;SDS011;14161;52.270;10.334;2022-07-29T08:24:07;3.03;;;1.52;;
26474;SDS011;14161;52.270;10.334;2022-07-29T08:26:51;3.25;;;1.60;;
26474;SDS011;14161;52.270;10.334;2022-07-29T08:29:16;4.97;;;1.80;;
26474;SDS011;14161;52.270;10.334;2022-07-29T08:31:42;3.95;;;1.38;;
26474;SDS011;14161;52.270;10.334;2022-07-29T08:34:08;4.45;;;1.65;;
26474;SDS011;14161;52.270;10.334;2022-07-29T08:36:34;1.98;;;1.40;;
26474;SDS011;14161;52.270;10.334;2022-07-29T08:39:00;6.63;;;1.60;;
26474;SDS011;14161;52.270;10.334;2022-07-29T08:41:28;16.58;;;2.58;;
26474;SDS011;14161;52.270;10.334;2022-07-29T08:43:53;4.88;;;1.55;;
26474;SDS011;14161;52.270;10.334;2022-07-29T08:46:20;22.67;;;2.38;;
26474;SDS011;14161;52.270;10.334;2022-07-29T08:48:46;5.07;;;1.63;;
26474;SDS011;14161;52.270;10.334;2022-07-29T08:51:12;4.20;;;1.65;;
26474;SDS011;14161;52.270;10.334;2022-07-29T08:53:44;4.90;;;1.40;;
26474;SDS011;14161;52.270;10.334;2022-07-29T08:56:12;5.35;;;1.38;;
26474;SDS011;14161;52.270;10.334;2022-07-29T08:58:47;3.03;;;1.70;;
26474;SDS011;14161;52.270;10.334;2022-07-29T09:01:20;2.03;;;1.42;;
26474;SDS011;14161;52.270;10.334;2022-07-29T09:03:50;3.40;;;1.33;;
26474;SDS011;14161;52.270;10.334;2022-07-29T09:06:20;1.52;;;1.17;;
26474;SDS011;14161;52.270;10.334;2022-07-29T09:08:47;4.75;;;1.80;;
26474;SDS011;14161;52.270;10.334;2022-07-29T09:11:13;1.83;;;1.25;;
26474;SDS011;14161;52.270;10.334;2022-07-29T09:13:41;6.30;;;1.83;;
26474;SDS011;14161;52.270;10.334;2022-07-29T09:16:07;2.67;;;1.45;;
26474;SDS011;14161;52.270;10.334;2022-07-29T09:18:33;2.67;;;1.63;;
26474;SDS011;14161;52.270;10.334;2022-07-29T09:21:07;2.75;;;1.50;;
26474;SDS011;14161;52.270;10.334;2022-07-29T09:24:13;5.93;;;1.45;;
26474;SDS011;14161;52.270;10.334;2022-07-29T09:26:45;2.55;;;1.30;;
26474;SDS011;14161;52.270;10.334;2022-07-29T09:31:41;4.95;;;1.70;;
26474;SDS011;14161;52.270;10.334;2022-07-29T09:34:09;3.80;;;1.55;;
26474;SDS011;14161;52.270;10.334;2022-07-29T09:36:39;6.57;;;2.00;;
26474;SDS011;14161;52.270;10.334;2022-07-29T09:39:14;6.05;;;1.55;;
26474;SDS011;14161;52.270;10.334;2022-07-29T09:41:46;3.92;;;1.90;;
26474;SDS011;14161;52.270;10.334;2022-07-29T09:44:12;3.47;;;1.55;;
26474;SDS011;14161;52.270;10.334;2022-07-29T09:46:40;5.38;;;1.70;;
26474;SDS011;14161;52.270;10.334;2022-07-29T09:51:36;6.97;;;1.75;;
26474;SDS011;14161;52.270;10.334;2022-07-29T09:54:08;8.27;;;2.28;;
26474;SDS011;14161;52.270;10.334;2022-07-29T09:56:49;3.00;;;1.52;;
26474;SDS011;14161;52.270;10.334;2022-07-29T09:59:18;3.42;;;2.00;;
26474;SDS011;14161;52.270;10.334;2022-07-29T10:01:48;6.18;;;1.70;;
26474;SDS011;14161;52.270;10.334;2022-07-29T10:04:17;4.18;;;2.13;;
26474;SDS011;14161;52.270;10.334;2022-07-29T10:07:04;5.57;;;1.73;;
26474;SDS011;14161;52.270;10.334;2022-07-29T10:09:30;7.90;;;1.85;;
26474;SDS011;14161;52.270;10.334;2022-07-29T10:12:03;3.95;;;1.75;;
26474;SDS011;14161;52.270;10.334;2022-07-29T10:14:47;2.85;;;1.63;;
26474;SDS011;14161;52.270;10.334;2022-07-29T10:17:12;4.70;;;2.10;;
26474;SDS011;14161;52.270;10.334;2022-07-29T10:19:38;4.70;;;1.70;;
26474;SDS011;14161;52.270;10.334;2022-07-29T10:22:07;3.30;;;1.50;;
26474;SDS011;14161;52.270;10.334;2022-07-29T10:24:34;5.70;;;1.90;;
26474;SDS011;14161;52.270;10.334;2022-07-29T10:27:02;4.57;;;1.77;;
26474;SDS011;14161;52.270;10.334;2022-07-29T10:29:32;5.07;;;1.77;;
26474;SDS011;14161;52.270;10.334;2022-07-29T10:40:28;10.23;;;2.03;;
26474;SDS011;14161;52.270;10.334;2022-07-29T10:43:40;3.38;;;1.83;;
26474;SDS011;14161;52.270;10.334;2022-07-29T10:46:10;4.60;;;1.70;;
26474;SDS011;14161;52.270;10.334;2022-07-29T11:02:43;3.53;;;1.63;;
26474;SDS011;14161;52.270;10.334;2022-07-29T11:05:10;2.83;;;1.50;;
26474;SDS011;14161;52.270;10.334;2022-07-29T11:07:39;2.55;;;1.50;;
26474;SDS011;14161;52.270;10.334;2022-07-29T11:10:25;2.83;;;1.67;;
26474;SDS011;14161;52.270;10.334;2022-07-29T11:12:51;3.22;;;1.80;;
26474;SDS011;14161;52.270;10.334;2022-07-29T11:15:18;4.40;;;1.85;;
26474;SDS011;14161;52.270;10.334;2022-07-29T11:20:38;4.72;;;1.80;;
26474;SDS011;14161;52.270;10.334;2022-07-29T11:26:13;3.30;;;1.70;;
26474;SDS011;14161;52.270;10.334;2022-07-29T11:31:51;3.33;;;2.05;;
26474;SDS011;14161;52.270;10.334;2022-07-29T11:34:27;3.25;;;1.73;;
26474;SDS011;14161;52.270;10.334;2022-07-29T11:47:31;10.07;;;2.20;;
26474;SDS011;14161;52.270;10.334;2022-07-29T11:50:03;6.00;;;2.45;;
26474;SDS011;14161;52.270;10.334;2022-07-29T11:52:37;3.92;;;2.08;;
26474;SDS011;14161;52.270;10.334;2022-07-29T11:55:11;5.25;;;1.85;;
26474;SDS011;14161;52.270;10.334;2022-07-29T11:57:45;4.85;;;2.22;;
26474;SDS011;14161;52.270;10.334;2022-07-29T12:00:29;2.92;;;1.85;;
26474;SDS011;14161;52.270;10.334;2022-07-29T12:02:55;3.20;;;1.98;;
26474;SDS011;14161;52.270;10.334;2022-07-29T12:05:29;2.75;;;1.73;;
26474;SDS011;14161;52.270;10.334;2022-07-29T12:08:03;2.97;;;1.75;;
26474;SDS011;14161;52.270;10.334;2022-07-29T12:10:50;4.13;;;2.08;;
26474;SDS011;14161;52.270;10.334;2022-07-29T12:13:19;3.50;;;1.80;;
26474;SDS011;14161;52.270;10.334;2022-07-29T12:15:52;2.35;;;1.70;;
26474;SDS011;14161;52.270;10.334;2022-07-29T12:18:29;7.20;;;1.80;;
26474;SDS011;14161;52.270;10.334;2022-07-29T12:20:59;2.80;;;1.70;;
26474;SDS011;14161;52.270;10.334;2022-07-29T12:23:28;5.93;;;2.10;;
26474;SDS011;14161;52.270;10.334;2022-07-29T12:25:55;2.25;;;1.60;;
26474;SDS011;14161;52.270;10.334;2022-07-29T12:28:20;3.42;;;1.65;;
26474;SDS011;14161;52.270;10.334;2022-07-29T12:30:47;7.25;;;1.95;;
26474;SDS011;14161;52.270;10.334;2022-07-29T12:35:54;3.75;;;1.98;;
26474;SDS011;14161;52.270;10.334;2022-07-29T12:38:24;3.17;;;2.00;;
26474;SDS011;14161;52.270;10.334;2022-07-29T12:40:51;4.90;;;2.10;;
26474;SDS011;14161;52.270;10.334;2022-07-29T12:43:20;4.28;;;1.55;;
26474;SDS011;14161;52.270;10.334;2022-07-29T12:45:51;5.03;;;1.63;;
26474;SDS011;14161;52.270;10.334;2022-07-29T12:48:38;3.15;;;1.63;;
26474;SDS011;14161;52.270;10.334;2022-07-29T12:51:06;3.90;;;1.23;;
26474;SDS011;14161;52.270;10.334;2022-07-29T12:53:35;4.80;;;1.58;;
26474;SDS011;14161;52.270;10.334;2022-07-29T12:56:04;7.72;;;1.70;;
26474;SDS011;14161;52.270;10.334;2022-07-29T13:04:02;2.40;;;1.70;;
26474;SDS011;14161;52.270;10.334;2022-07-29T13:06:31;5.75;;;2.17;;
26474;SDS011;14161;52.270;10.334;2022-07-29T13:09:05;5.07;;;1.77;;
26474;SDS011;14161;52.270;10.334;2022-07-29T13:11:36;8.77;;;1.88;;
26474;SDS011;14161;52.270;10.334;2022-07-29T13:14:08;2.88;;;1.75;;
26474;SDS011;14161;52.270;10.334;2022-07-29T13:16:36;3.45;;;1.88;;
26474;SDS011;14161;52.270;10.334;2022-07-29T13:19:10;5.72;;;2.35;;
26474;SDS011;14161;52.270;10.334;2022-07-29T13:21:39;7.13;;;1.92;;
26474;SDS011;14161;52.270;10.334;2022-07-29T13:24:05;3.67;;;1.90;;
26474;SDS011;14161;52.270;10.334;2022-07-29T13:26:34;5.15;;;2.05;;
26474;SDS011;14161;52.270;10.334;2022-07-29T13:29:02;5.18;;;1.83;;
26474;SDS011;14161;52.270;10.334;2022-07-29T13:31:30;4.93;;;2.20;;
26474;SDS011;14161;52.270;10.334;2022-07-29T13:33:56;3.15;;;1.90;;
26474;SDS011;14161;52.270;10.334;2022-07-29T13:36:22;2.50;;;1.90;;
26474;SDS011;14161;52.270;10.334;2022-07-29T13:38:47;3.72;;;1.88;;
26474;SDS011;14161;52.270;10.334;2022-07-29T13:41:13;2.60;;;1.80;;
26474;SDS011;14161;52.270;10.334;2022-07-29T13:43:38;2.78;;;1.75;;
26474;SDS011;14161;52.270;10.334;2022-07-29T13:46:04;3.45;;;2.08;;
26474;SDS011;14161;52.270;10.334;2022-07-29T13:48:29;2.70;;;1.77;;
26474;SDS011;14161;52.270;10.334;2022-07-29T13:50:55;3.08;;;2.03;;
26474;SDS011;14161;52.270;10.334;2022-07-29T13:53:21;3.97;;;2.05;;
26474;SDS011;14161;52.270;10.334;2022-07-29T13:55:47;5.07;;;1.70;;
26474;SDS011;14161;52.270;10.334;2022-07-29T13:58:12;5.35;;;1.90;;
26474;SDS011;14161;52.270;10.334;2022-07-29T14:00:38;3.10;;;1.95;;
26474;SDS011;14161;52.270;10.334;2022-07-29T14:03:03;1.92;;;1.55;;
26474;SDS011;14161;52.270;10.334;2022-07-29T14:05:29;4.85;;;1.90;;
26474;SDS011;14161;52.270;10.334;2022-07-29T14:07:54;2.60;;;1.52;;
26474;SDS011;14161;52.270;10.334;2022-07-29T14:10:20;2.80;;;1.80;;
26474;SDS011;14161;52.270;10.334;2022-07-29T14:12:45;2.42;;;1.63;;
26474;SDS011;14161;52.270;10.334;2022-07-29T14:15:11;4.00;;;1.85;;
26474;SDS011;14161;52.270;10.334;2022-07-29T14:17:39;2.70;;;2.15;;
26474;SDS011;14161;52.270;10.334;2022-07-29T14:20:05;3.22;;;2.08;;
26474;SDS011;14161;52.270;10.334;2022-07-29T14:22:31;3.60;;;2.15;;
26474;SDS011;14161;52.270;10.334;2022-07-29T14:25:02;2.75;;;2.08;;
26474;SDS011;14161;52.270;10.334;2022-07-29T14:27:27;2.53;;;1.73;;
26474;SDS011;14161;52.270;10.334;2022-07-29T14:29:53;9.77;;;2.30;;
26474;SDS011;14161;52.270;10.334;2022-07-29T14:32:22;6.25;;;2.00;;
26474;SDS011;14161;52.270;10.334;2022-07-29T14:34:47;5.72;;;2.40;;
26474;SDS011;14161;52.270;10.334;2022-07-29T14:37:13;4.20;;;1.80;;
26474;SDS011;14161;52.270;10.334;2022-07-29T14:39:38;6.22;;;1.92;;
26474;SDS011;14161;52.270;10.334;2022-07-29T14:42:04;3.22;;;1.70;;
26474;SDS011;14161;52.270;10.334;2022-07-29T14:44:29;3.63;;;1.77;;
26474;SDS011;14161;52.270;10.334;2022-07-29T14:46:59;5.35;;;1.75;;
26474;SDS011;14161;52.270;10.334;2022-07-29T14:49:28;4.90;;;1.60;;
26474;SDS011;14161;52.270;10.334;2022-07-29T14:51:54;7.10;;;1.70;;
26474;SDS011;14161;52.270;10.334;2022-07-29T14:54:19;2.83;;;1.60;;
26474;SDS011;14161;52.270;10.334;2022-07-29T14:56:45;9.90;;;1.90;;
26474;SDS011;14161;52.270;10.334;2022-07-29T14:59:11;5.63;;;1.77;;
26474;SDS011;14161;52.270;10.334;2022-07-29T15:01:37;5.80;;;1.80;;
26474;SDS011;14161;52.270;10.334;2022-07-29T15:04:02;6.95;;;2.08;;
26474;SDS011;14161;52.270;10.334;2022-07-29T15:06:28;4.15;;;1.83;;
26474;SDS011;14161;52.270;10.334;2022-07-29T15:08:53;3.95;;;1.73;;
26474;SDS011;14161;52.270;10.334;2022-07-29T15:11:19;5.80;;;1.80;;
26474;SDS011;14161;52.270;10.334;2022-07-29T15:13:44;1.85;;;1.48;;
26474;SDS011;14161;52.270;10.334;2022-07-29T15:16:10;2.53;;;1.63;;
26474;SDS011;14161;52.270;10.334;2022-07-29T15:18:35;4.15;;;1.75;;
26474;SDS011;14161;52.270;10.334;2022-07-29T15:21:03;3.42;;;1.85;;
26474;SDS011;14161;52.270;10.334;2022-07-29T15:23:31;2.80;;;1.80;;
26474;SDS011;14161;52.270;10.334;2022-07-29T15:25:56;2.80;;;1.77;;
26474;SDS011;14161;52.270;10.334;2022-07-29T15:28:22;2.75;;;1.67;;
26474;SDS011;14161;52.270;10.334;2022-07-29T15:30:48;2.40;;;1.42;;
26474;SDS011;14161;52.270;10.334;2022-07-29T15:33:13;2.17;;;1.42;;
26474;SDS011;14161;52.270;10.334;2022-07-29T15:35:38;3.33;;;1.50;;
26474;SDS011;14161;52.270;10.334;2022-07-29T15:38:04;3.22;;;1.50;;
26474;SDS011;14161;52.270;10.334;2022-07-29T15:40:32;5.78;;;1.80;;
26474;SDS011;14161;52.270;10.334;2022-07-29T15:42:58;5.55;;;1.35;;
26474;SDS011;14161;52.270;10.334;2022-07-29T15:45:34;3.60;;;1.50;;
26474;SDS011;14161;52.270;10.334;2022-07-29T15:48:07;3.45;;;1.60;;
26474;SDS011;14161;52.270;10.334;2022-07-29T15:50:33;2.20;;;1.55;;
26474;SDS011;14161;52.270;10.334;2022-07-29T15:53:06;5.90;;;1.77;;
26474;SDS011;14161;52.270;10.334;2022-07-29T15:55:32;6.33;;;1.70;;
26474;SDS011;14161;52.270;10.334;2022-07-29T15:57:58;6.60;;;1.60;;
26474;SDS011;14161;52.270;10.334;2022-07-29T16:00:23;4.22;;;1.45;;
26474;SDS011;14161;52.270;10.334;2022-07-29T16:02:49;5.32;;;1.85;;
26474;SDS011;14161;52.270;10.334;2022-07-29T16:05:14;5.05;;;2.58;;
26474;SDS011;14161;52.270;10.334;2022-07-29T16:07:40;3.08;;;2.15;;